Terminal Aerodrome Forecast
Issued by NWS

Home | Current Version | Previous Version | Text Only | Print | Product List | Glossary On
Versions: 1 2 3 4 5 6 7 8 9 10 11 12 13
000
FTUS42 KGSP 062336
TAFGMU
TAF
KGMU 062336Z 0700/0724 11005KT P6SM FEW250
     FM070300 00000KT P6SM FEW250
     FM071400 05010KT P6SM SCT150
     FM072200 05006KT P6SM BKN150=

USA.gov is the U.S. government's official web portal to all federal, state and local government web resources and services.